Time;durP1;ratioP1;P1;durP2;ratioP2;P2;SDS_P1;SDS_P2;PMS_P1;PMS_P2;Temp;Humidity;BMP_temperature;BMP_pressure;BME280_temperature;BME280_humidity;BME280_pressure;Samples;Min_cycle;Max_cycle;Signal;HPM_P1;HPM_P2
2024/01/27 00:01:56;;;;;;;17.42;3.78;;;;;;;;;;5039409;28;20044;-66
2024/01/27 00:04:23;;;;;;;14.98;3.42;;;;;;;;;;5075762;28;20535;-67
2024/01/27 00:06:49;;;;;;;12.65;3.30;;;;;;;;;;5078970;28;20055;-67
2024/01/27 00:09:16;;;;;;;13.57;3.55;;;;;;;;;;5077480;28;20048;-66
2024/01/27 00:11:42;;;;;;;9.93;3.38;;;;;;;;;;5077422;28;20549;-68
2024/01/27 00:14:09;;;;;;;15.02;3.20;;;;;;;;;;5081236;28;20135;-68
2024/01/27 00:16:35;;;;;;;16.30;3.00;;;;;;;;;;5073133;28;20502;-68
2024/01/27 00:19:02;;;;;;;11.80;3.10;;;;;;;;;;5082919;28;20055;-74
2024/01/27 00:21:28;;;;;;;15.13;3.03;;;;;;;;;;5060294;28;20067;-75
2024/01/27 00:24:00;;;;;;;17.90;3.42;;;;;;;;;;5069515;28;20059;-76
2024/01/27 00:26:27;;;;;;;15.80;3.40;;;;;;;;;;5055016;28;20083;-77
2024/01/27 00:28:54;;;;;;;17.45;3.63;;;;;;;;;;5066284;28;20262;-76
2024/01/27 00:31:21;;;;;;;13.25;2.95;;;;;;;;;;5083991;28;20044;-76
2024/01/27 00:33:47;;;;;;;12.13;2.80;;;;;;;;;;5082374;28;20051;-75
2024/01/27 00:36:14;;;;;;;16.73;3.20;;;;;;;;;;5084613;28;20090;-76
2024/01/27 00:38:40;;;;;;;20.48;3.40;;;;;;;;;;5081970;28;20079;-77
2024/01/27 00:41:07;;;;;;;13.85;3.00;;;;;;;;;;5064693;28;20048;-75
2024/01/27 00:43:33;;;;;;;17.13;3.88;;;;;;;;;;5071203;28;20048;-75
2024/01/27 00:45:59;;;;;;;16.83;4.43;;;;;;;;;;5080316;28;20045;-75
2024/01/27 00:48:26;;;;;;;15.40;3.40;;;;;;;;;;5086935;28;20078;-76
2024/01/27 00:50:52;;;;;;;18.85;3.70;;;;;;;;;;5064548;28;20075;-76
2024/01/27 00:53:19;;;;;;;17.45;3.50;;;;;;;;;;5087099;28;20496;-75
2024/01/27 00:55:45;;;;;;;15.80;3.58;;;;;;;;;;5080491;28;20764;-76
2024/01/27 00:58:12;;;;;;;14.93;3.33;;;;;;;;;;5073323;28;20044;-75
2024/01/27 01:00:38;;;;;;;15.75;3.78;;;;;;;;;;5089707;28;20103;-75
2024/01/27 01:03:04;;;;;;;18.85;3.97;;;;;;;;;;5082867;28;20048;-75
2024/01/27 01:05:31;;;;;;;13.13;3.53;;;;;;;;;;5086072;28;20623;-75
2024/01/27 01:07:57;;;;;;;9.43;2.72;;;;;;;;;;5056912;28;20080;-75
2024/01/27 01:10:24;;;;;;;10.88;3.10;;;;;;;;;;5074648;28;20044;-75
2024/01/27 01:12:50;;;;;;;17.05;2.95;;;;;;;;;;5081326;28;20054;-75
2024/01/27 01:15:17;;;;;;;12.55;4.20;;;;;;;;;;5085832;28;20105;-76
2024/01/27 01:17:43;;;;;;;13.32;3.40;;;;;;;;;;5079756;28;20151;-74
2024/01/27 01:20:10;;;;;;;14.32;2.63;;;;;;;;;;5079385;28;20075;-74
2024/01/27 01:22:36;;;;;;;11.00;3.15;;;;;;;;;;5082581;28;20477;-74
2024/01/27 01:25:03;;;;;;;20.75;3.75;;;;;;;;;;5077306;28;20555;-77
2024/01/27 01:27:29;;;;;;;15.98;3.65;;;;;;;;;;5086199;28;20050;-75
2024/01/27 01:29:56;;;;;;;16.98;4.30;;;;;;;;;;5068669;28;20418;-76
2024/01/27 01:32:23;;;;;;;13.07;3.58;;;;;;;;;;5060684;28;20788;-75
2024/01/27 01:34:50;;;;;;;13.82;2.95;;;;;;;;;;5066578;28;20158;-74
2024/01/27 01:37:16;;;;;;;15.90;3.40;;;;;;;;;;5074993;28;20138;-75
2024/01/27 01:39:43;;;;;;;14.30;3.88;;;;;;;;;;5064686;28;20048;-73
2024/01/27 01:42:09;;;;;;;12.95;3.90;;;;;;;;;;5062387;28;20491;-74
2024/01/27 01:44:36;;;;;;;13.85;3.33;;;;;;;;;;5067514;28;20044;-73
2024/01/27 01:47:03;;;;;;;11.48;3.13;;;;;;;;;;5067960;28;20048;-75
2024/01/27 01:49:29;;;;;;;16.67;2.92;;;;;;;;;;5083791;28;20048;-74
2024/01/27 01:51:56;;;;;;;12.40;3.58;;;;;;;;;;5082872;28;20145;-75
2024/01/27 01:54:27;;;;;;;8.85;2.75;;;;;;;;;;5077087;28;20056;-75
2024/01/27 01:56:55;;;;;;;13.02;3.50;;;;;;;;;;5086152;28;20083;-75
2024/01/27 01:59:21;;;;;;;12.77;2.72;;;;;;;;;;5083907;28;20078;-73
2024/01/27 02:01:48;;;;;;;11.20;2.72;;;;;;;;;;5083841;28;20056;-74
2024/01/27 02:04:14;;;;;;;14.15;3.35;;;;;;;;;;5080888;28;20098;-75
2024/01/27 02:06:40;;;;;;;18.42;3.22;;;;;;;;;;5085210;28;20055;-75
2024/01/27 02:09:07;;;;;;;11.15;2.92;;;;;;;;;;5085446;28;20143;-75
2024/01/27 02:11:34;;;;;;;13.57;3.67;;;;;;;;;;5082694;28;20044;-76
2024/01/27 02:14:00;;;;;;;14.10;2.50;;;;;;;;;;5085515;28;20388;-75
2024/01/27 02:16:26;;;;;;;11.63;2.95;;;;;;;;;;5067926;28;20108;-75
2024/01/27 02:18:53;;;;;;;23.85;4.53;;;;;;;;;;5076335;28;20042;-74
2024/01/27 02:21:20;;;;;;;14.52;3.38;;;;;;;;;;5081797;28;20052;-75
2024/01/27 02:23:46;;;;;;;9.52;3.17;;;;;;;;;;5079883;28;20083;-75
2024/01/27 02:26:13;;;;;;;11.90;3.08;;;;;;;;;;5085708;28;20472;-75
2024/01/27 02:28:39;;;;;;;14.93;3.55;;;;;;;;;;5080922;28;20467;-75
2024/01/27 02:31:05;;;;;;;16.42;3.20;;;;;;;;;;5085032;28;20136;-74
2024/01/27 02:33:32;;;;;;;12.50;3.47;;;;;;;;;;5079109;28;20135;-75
2024/01/27 02:35:58;;;;;;;12.65;3.30;;;;;;;;;;5053740;28;20137;-74
2024/01/27 02:38:25;;;;;;;12.60;3.00;;;;;;;;;;5082951;28;20484;-75
2024/01/27 02:40:51;;;;;;;8.18;2.70;;;;;;;;;;5060679;28;20060;-74
2024/01/27 02:43:17;;;;;;;9.02;3.40;;;;;;;;;;5084369;28;20139;-75
2024/01/27 02:45:44;;;;;;;8.63;3.00;;;;;;;;;;5054404;28;20473;-75
2024/01/27 02:48:10;;;;;;;11.90;3.65;;;;;;;;;;5074581;28;20132;-76
2024/01/27 02:50:37;;;;;;;9.60;2.72;;;;;;;;;;5099535;28;20575;-75
2024/01/27 02:53:03;;;;;;;16.25;3.28;;;;;;;;;;5079265;28;20048;-75
2024/01/27 02:55:30;;;;;;;14.88;3.17;;;;;;;;;;5079981;28;20496;-75
2024/01/27 02:57:56;;;;;;;12.65;3.20;;;;;;;;;;5077850;28;20510;-75
2024/01/27 03:00:23;;;;;;;9.77;3.15;;;;;;;;;;5063370;28;20154;-74
2024/01/27 03:02:49;;;;;;;10.48;3.17;;;;;;;;;;5080242;28;20052;-74
2024/01/27 03:05:16;;;;;;;13.15;2.72;;;;;;;;;;5074910;28;20056;-75
2024/01/27 03:07:42;;;;;;;11.27;3.72;;;;;;;;;;5090739;28;20044;-74
2024/01/27 03:10:09;;;;;;;12.25;3.35;;;;;;;;;;5079426;28;20131;-74
2024/01/27 03:12:35;;;;;;;13.70;3.38;;;;;;;;;;5088016;28;20048;-75
2024/01/27 03:15:02;;;;;;;15.00;3.78;;;;;;;;;;5063720;28;20421;-75
2024/01/27 03:17:28;;;;;;;12.48;3.55;;;;;;;;;;5073090;28;20052;-75
2024/01/27 03:19:55;;;;;;;14.05;3.38;;;;;;;;;;5062945;28;20125;-75
2024/01/27 03:22:22;;;;;;;17.45;3.53;;;;;;;;;;5060790;28;20052;-76
2024/01/27 03:24:48;;;;;;;17.30;3.42;;;;;;;;;;5084629;28;20537;-75
2024/01/27 03:27:14;;;;;;;13.85;3.28;;;;;;;;;;5060311;28;20087;-74
2024/01/27 03:29:41;;;;;;;11.13;3.67;;;;;;;;;;5082849;28;20043;-75
2024/01/27 03:32:07;;;;;;;15.32;4.28;;;;;;;;;;5049870;28;20067;-75
2024/01/27 03:34:34;;;;;;;12.23;3.85;;;;;;;;;;5078445;28;20152;-76
2024/01/27 03:37:00;;;;;;;13.18;4.20;;;;;;;;;;5085924;28;20097;-76
2024/01/27 03:39:27;;;;;;;15.25;4.50;;;;;;;;;;5063091;28;20168;-76
2024/01/27 03:41:53;;;;;;;11.90;4.32;;;;;;;;;;5087735;28;20464;-76
2024/01/27 03:44:20;;;;;;;12.82;4.10;;;;;;;;;;5068159;28;20048;-76
2024/01/27 03:46:47;;;;;;;33.67;5.95;;;;;;;;;;5082780;28;20059;-76
2024/01/27 03:49:14;;;;;;;17.63;4.50;;;;;;;;;;5087540;28;20103;-76
2024/01/27 03:51:41;;;;;;;18.13;4.75;;;;;;;;;;5094740;28;20311;-76
2024/01/27 03:54:07;;;;;;;16.05;5.10;;;;;;;;;;5066063;28;20718;-75
2024/01/27 03:56:34;;;;;;;19.48;5.25;;;;;;;;;;5057733;28;20047;-75
2024/01/27 03:59:00;;;;;;;14.77;5.65;;;;;;;;;;5086202;28;20040;-75
2024/01/27 04:01:26;;;;;;;16.20;5.57;;;;;;;;;;5069366;28;20159;-75
2024/01/27 04:03:53;;;;;;;12.80;5.15;;;;;;;;;;5082208;28;20095;-75
2024/01/27 04:06:19;;;;;;;18.85;5.63;;;;;;;;;;5069058;28;20537;-75
2024/01/27 04:08:46;;;;;;;18.90;5.78;;;;;;;;;;5079891;28;20052;-76
2024/01/27 04:11:20;;;;;;;16.80;5.47;;;;;;;;;;5083207;28;20519;-75
2024/01/27 04:13:48;;;;;;;20.08;6.07;;;;;;;;;;5069469;28;20793;-76
2024/01/27 04:16:15;;;;;;;11.10;5.03;;;;;;;;;;5063920;28;20066;-76
2024/01/27 04:18:41;;;;;;;22.17;5.70;;;;;;;;;;5068612;28;20208;-75
2024/01/27 04:21:08;;;;;;;20.05;5.88;;;;;;;;;;5091593;28;20083;-75
2024/01/27 04:23:35;;;;;;;16.33;5.82;;;;;;;;;;5066499;28;20068;-76
2024/01/27 04:26:02;;;;;;;18.45;6.55;;;;;;;;;;5089409;28;20044;-75
2024/01/27 04:28:30;;;;;;;14.57;6.03;;;;;;;;;;5086937;28;20056;-74
2024/01/27 04:30:56;;;;;;;20.95;6.63;;;;;;;;;;5098373;28;20052;-74
2024/01/27 04:33:23;;;;;;;22.95;7.07;;;;;;;;;;5083628;28;20105;-75
2024/01/27 04:35:49;;;;;;;15.30;6.35;;;;;;;;;;5088385;28;20143;-74
2024/01/27 04:38:16;;;;;;;14.15;6.43;;;;;;;;;;5062061;28;20135;-74
2024/01/27 04:40:42;;;;;;;20.52;6.95;;;;;;;;;;5084497;28;20079;-74
2024/01/27 04:43:09;;;;;;;21.70;8.32;;;;;;;;;;5083922;28;20056;-74
2024/01/27 04:45:35;;;;;;;23.95;6.90;;;;;;;;;;5087985;28;20734;-75
2024/01/27 04:48:02;;;;;;;23.95;7.20;;;;;;;;;;5088135;28;20118;-75
2024/01/27 04:50:28;;;;;;;17.98;6.90;;;;;;;;;;5093713;28;20070;-75
2024/01/27 04:52:55;;;;;;;21.95;7.60;;;;;;;;;;5083713;28;20087;-75
2024/01/27 04:55:21;;;;;;;18.75;6.57;;;;;;;;;;5053514;28;20083;-75
2024/01/27 04:57:48;;;;;;;20.45;6.68;;;;;;;;;;5069574;28;20140;-75
2024/01/27 05:00:14;;;;;;;17.17;6.78;;;;;;;;;;5089874;28;20400;-77
2024/01/27 05:02:41;;;;;;;20.65;6.50;;;;;;;;;;5061128;28;20052;-75
2024/01/27 05:05:08;;;;;;;18.13;7.97;;;;;;;;;;5086094;28;20059;-74
2024/01/27 05:07:35;;;;;;;16.40;7.35;;;;;;;;;;5061431;28;20051;-75
2024/01/27 05:10:01;;;;;;;22.73;6.90;;;;;;;;;;5088295;28;20048;-77
2024/01/27 05:12:28;;;;;;;16.05;7.15;;;;;;;;;;5082945;28;20074;-74
2024/01/27 05:14:55;;;;;;;22.20;7.88;;;;;;;;;;5069950;28;20044;-76
2024/01/27 05:17:21;;;;;;;24.40;8.10;;;;;;;;;;5070215;28;20056;-75
2024/01/27 05:19:49;;;;;;;21.63;8.50;;;;;;;;;;5077764;28;20048;-75
2024/01/27 05:22:16;;;;;;;20.00;7.50;;;;;;;;;;5064892;28;20052;-74
2024/01/27 05:24:43;;;;;;;17.00;8.35;;;;;;;;;;5081034;28;20296;-74
2024/01/27 05:27:09;;;;;;;13.75;6.90;;;;;;;;;;5086600;28;20108;-75
2024/01/27 05:29:38;;;;;;;23.50;7.88;;;;;;;;;;5074138;28;20056;-77
2024/01/27 05:32:05;;;;;;;18.90;6.97;;;;;;;;;;5086137;28;20408;-75
2024/01/27 05:34:31;;;;;;;17.42;7.32;;;;;;;;;;5084571;28;20048;-75
2024/01/27 05:36:58;;;;;;;17.70;7.13;;;;;;;;;;5060850;28;20810;-75
2024/01/27 05:39:24;;;;;;;16.92;7.25;;;;;;;;;;5070091;28;20121;-75
2024/01/27 05:41:51;;;;;;;23.75;7.50;;;;;;;;;;5065101;28;20056;-75
2024/01/27 05:44:17;;;;;;;18.40;8.32;;;;;;;;;;5087983;28;20040;-74
2024/01/27 05:46:44;;;;;;;14.55;6.82;;;;;;;;;;5086555;28;20048;-75
2024/01/27 05:49:10;;;;;;;20.65;7.22;;;;;;;;;;5051601;28;20118;-75
2024/01/27 05:51:38;;;;;;;13.82;6.50;;;;;;;;;;5065461;28;20079;-75
2024/01/27 05:54:04;;;;;;;18.77;7.45;;;;;;;;;;5063509;28;20059;-76
2024/01/27 05:56:36;;;;;;;20.80;7.78;;;;;;;;;;5070798;28;20142;-76
2024/01/27 05:59:02;;;;;;;21.10;7.50;;;;;;;;;;5083575;28;20060;-76
2024/01/27 06:01:29;;;;;;;19.75;7.35;;;;;;;;;;5082361;28;20062;-76
2024/01/27 06:03:55;;;;;;;23.10;8.07;;;;;;;;;;5083181;28;20652;-74
2024/01/27 06:06:22;;;;;;;16.30;7.78;;;;;;;;;;5064383;28;20473;-76
2024/01/27 06:08:49;;;;;;;25.35;7.90;;;;;;;;;;5087759;28;20056;-76
2024/01/27 06:11:22;;;;;;;25.55;8.02;;;;;;;;;;5081767;28;20054;-76
2024/01/27 06:13:49;;;;;;;15.65;7.30;;;;;;;;;;5079856;28;20477;-76
2024/01/27 06:16:18;;;;;;;20.30;7.88;;;;;;;;;;5057906;28;20044;-75
2024/01/27 06:18:45;;;;;;;18.85;8.43;;;;;;;;;;5082274;28;20059;-76
2024/01/27 06:21:12;;;;;;;16.38;7.70;;;;;;;;;;5087346;28;20551;-76
2024/01/27 06:23:38;;;;;;;16.90;7.60;;;;;;;;;;5079513;28;20044;-74
2024/01/27 06:26:08;;;;;;;15.60;7.07;;;;;;;;;;5086951;28;20044;-76
2024/01/27 06:28:36;;;;;;;19.73;7.63;;;;;;;;;;5080502;28;20824;-76
2024/01/27 06:31:02;;;;;;;16.52;7.88;;;;;;;;;;5086024;28;20591;-76
2024/01/27 06:33:29;;;;;;;16.25;6.65;;;;;;;;;;5086615;28;20044;-76
2024/01/27 06:35:56;;;;;;;20.20;7.15;;;;;;;;;;5061844;28;20135;-75
2024/01/27 06:38:22;;;;;;;17.60;7.88;;;;;;;;;;5099893;28;20078;-77
2024/01/27 06:40:48;;;;;;;17.83;7.32;;;;;;;;;;5081533;28;20121;-76
2024/01/27 06:43:15;;;;;;;19.83;7.60;;;;;;;;;;5064346;28;20771;-77
2024/01/27 06:45:41;;;;;;;20.23;8.35;;;;;;;;;;5059778;28;20036;-77
2024/01/27 06:48:08;;;;;;;18.52;7.35;;;;;;;;;;5085998;28;20430;-77
2024/01/27 06:50:34;;;;;;;14.20;7.45;;;;;;;;;;5086812;28;20084;-76
2024/01/27 06:53:01;;;;;;;12.20;6.57;;;;;;;;;;5076770;28;20584;-76
2024/01/27 06:55:27;;;;;;;17.35;7.68;;;;;;;;;;5083878;28;20044;-76
2024/01/27 06:57:54;;;;;;;21.20;7.80;;;;;;;;;;5076600;28;20077;-76
2024/01/27 07:00:20;;;;;;;19.52;7.75;;;;;;;;;;5083113;28;20047;-75
2024/01/27 07:02:47;;;;;;;15.90;7.75;;;;;;;;;;5067888;28;20576;-75
2024/01/27 07:05:14;;;;;;;15.50;7.00;;;;;;;;;;5080307;28;20052;-74
2024/01/27 07:07:41;;;;;;;12.90;7.40;;;;;;;;;;5086080;28;20440;-76
2024/01/27 07:10:08;;;;;;;14.60;7.35;;;;;;;;;;5062827;28;20388;-75
2024/01/27 07:12:34;;;;;;;17.13;7.95;;;;;;;;;;5086655;28;20051;-76
2024/01/27 07:15:01;;;;;;;11.80;6.63;;;;;;;;;;5078825;28;20097;-76
2024/01/27 07:17:27;;;;;;;16.17;7.00;;;;;;;;;;5067897;28;20044;-76
2024/01/27 07:19:54;;;;;;;15.27;7.05;;;;;;;;;;5086444;28;20048;-75
2024/01/27 07:22:22;;;;;;;15.65;7.32;;;;;;;;;;5062762;28;20081;-76
2024/01/27 07:24:51;;;;;;;17.73;7.07;;;;;;;;;;5068097;28;20071;-75
2024/01/27 07:27:18;;;;;;;16.05;7.28;;;;;;;;;;5077497;28;20121;-76
2024/01/27 07:29:45;;;;;;;19.83;8.18;;;;;;;;;;5085389;28;20048;-76
2024/01/27 07:32:13;;;;;;;15.50;8.27;;;;;;;;;;5084998;28;22091;-77
2024/01/27 07:34:41;;;;;;;19.92;7.43;;;;;;;;;;5080605;28;20575;-76
2024/01/27 07:37:08;;;;;;;19.87;7.47;;;;;;;;;;5085481;28;20040;-75
2024/01/27 07:39:34;;;;;;;15.85;7.65;;;;;;;;;;5059967;28;20105;-75
2024/01/27 07:42:01;;;;;;;17.73;8.15;;;;;;;;;;5078650;28;20046;-76
2024/01/27 07:44:28;;;;;;;19.45;8.23;;;;;;;;;;5077925;28;20523;-77
2024/01/27 07:46:54;;;;;;;17.05;7.45;;;;;;;;;;5073409;28;20040;-76
2024/01/27 07:49:24;;;;;;;17.90;7.72;;;;;;;;;;5069433;28;20059;-76
2024/01/27 07:51:50;;;;;;;21.25;8.20;;;;;;;;;;5061615;28;20055;-76
2024/01/27 07:54:17;;;;;;;18.15;7.40;;;;;;;;;;5086437;28;20048;-76
2024/01/27 07:56:43;;;;;;;13.98;7.60;;;;;;;;;;5058024;28;20056;-76
2024/01/27 07:59:13;;;;;;;19.23;8.18;;;;;;;;;;5082986;28;20083;-76
2024/01/27 08:01:40;;;;;;;23.90;8.70;;;;;;;;;;5080179;28;20088;-75
2024/01/27 08:04:07;;;;;;;18.70;8.20;;;;;;;;;;5086237;28;20278;-74
2024/01/27 08:06:33;;;;;;;18.70;8.02;;;;;;;;;;5068539;28;20121;-76
2024/01/27 08:09:00;;;;;;;18.45;8.38;;;;;;;;;;5077851;28;20051;-75
2024/01/27 08:11:26;;;;;;;17.38;8.40;;;;;;;;;;5080797;28;20044;-75
2024/01/27 08:13:53;;;;;;;20.23;8.35;;;;;;;;;;5078848;28;20052;-76
2024/01/27 08:16:20;;;;;;;19.08;8.25;;;;;;;;;;5085691;28;20099;-75
2024/01/27 08:18:46;;;;;;;18.30;8.20;;;;;;;;;;5089177;28;20381;-76
2024/01/27 08:21:13;;;;;;;22.95;8.73;;;;;;;;;;5084207;28;20097;-75
2024/01/27 08:23:40;;;;;;;15.88;8.88;;;;;;;;;;5075348;28;20076;-76
2024/01/27 08:26:06;;;;;;;19.15;8.60;;;;;;;;;;5075947;28;20450;-76
2024/01/27 08:28:32;;;;;;;18.77;9.15;;;;;;;;;;5085277;28;20048;-76
2024/01/27 08:30:59;;;;;;;21.70;10.02;;;;;;;;;;5086367;28;20052;-76
2024/01/27 08:33:26;;;;;;;23.65;9.90;;;;;;;;;;5064540;28;20051;-75
2024/01/27 08:35:53;;;;;;;23.00;8.85;;;;;;;;;;5080850;28;20408;-76
2024/01/27 08:38:19;;;;;;;20.98;9.30;;;;;;;;;;5075527;28;20877;-75
2024/01/27 08:40:46;;;;;;;18.58;9.73;;;;;;;;;;5062716;28;20080;-76
2024/01/27 08:43:12;;;;;;;19.75;9.18;;;;;;;;;;5082715;28;20435;-76
2024/01/27 08:45:39;;;;;;;22.48;10.10;;;;;;;;;;5088667;28;20080;-76
2024/01/27 08:48:06;;;;;;;22.45;10.43;;;;;;;;;;5065535;28;20103;-75
2024/01/27 08:50:33;;;;;;;15.18;9.40;;;;;;;;;;5087595;28;20040;-76
2024/01/27 08:52:59;;;;;;;21.48;9.13;;;;;;;;;;5082302;28;20052;-76
2024/01/27 08:55:25;;;;;;;23.15;10.55;;;;;;;;;;5081980;28;20054;-77
2024/01/27 08:57:52;;;;;;;28.73;10.10;;;;;;;;;;5089101;28;20506;-76
2024/01/27 09:00:18;;;;;;;20.55;9.85;;;;;;;;;;5082958;28;20144;-76
2024/01/27 09:02:45;;;;;;;17.00;9.80;;;;;;;;;;5096317;28;20732;-76
2024/01/27 09:05:11;;;;;;;19.33;9.90;;;;;;;;;;5067536;28;20672;-76
2024/01/27 09:07:38;;;;;;;20.90;9.93;;;;;;;;;;5076966;28;20857;-77
2024/01/27 09:10:04;;;;;;;18.80;10.45;;;;;;;;;;5085928;28;20040;-76
2024/01/27 09:12:31;;;;;;;22.50;10.80;;;;;;;;;;5079297;28;20066;-76
2024/01/27 09:14:57;;;;;;;24.17;10.68;;;;;;;;;;5095322;28;20044;-76
2024/01/27 09:17:24;;;;;;;19.35;10.85;;;;;;;;;;5088169;28;20056;-76
2024/01/27 09:19:50;;;;;;;20.75;10.48;;;;;;;;;;5083187;28;20105;-76
2024/01/27 09:22:17;;;;;;;20.52;10.13;;;;;;;;;;5083619;28;20691;-75
2024/01/27 09:24:43;;;;;;;25.30;11.32;;;;;;;;;;5062705;28;20048;-76
2024/01/27 09:27:10;;;;;;;17.88;10.07;;;;;;;;;;5068920;28;20048;-76
2024/01/27 09:29:36;;;;;;;21.33;10.30;;;;;;;;;;5082028;28;20044;-76
2024/01/27 09:32:03;;;;;;;24.13;11.30;;;;;;;;;;5076338;28;20174;-76
2024/01/27 09:34:29;;;;;;;25.10;11.68;;;;;;;;;;5079015;28;20047;-76
2024/01/27 09:36:56;;;;;;;27.83;11.35;;;;;;;;;;5059256;28;20690;-76
2024/01/27 09:39:22;;;;;;;20.83;10.60;;;;;;;;;;5067549;28;20376;-76
2024/01/27 09:41:50;;;;;;;20.35;9.65;;;;;;;;;;5047337;28;20423;-76
2024/01/27 09:44:18;;;;;;;27.17;10.93;;;;;;;;;;5087326;28;20054;-76
2024/01/27 09:46:45;;;;;;;24.98;10.20;;;;;;;;;;5065654;28;20048;-75
2024/01/27 09:49:13;;;;;;;25.55;10.45;;;;;;;;;;5075853;28;20873;-76
2024/01/27 09:51:41;;;;;;;34.58;11.20;;;;;;;;;;5066578;28;20090;-75
2024/01/27 09:54:07;;;;;;;21.02;9.35;;;;;;;;;;5080886;28;20044;-75
2024/01/27 09:56:34;;;;;;;23.15;11.85;;;;;;;;;;5068219;28;20051;-75
2024/01/27 09:59:01;;;;;;;20.77;10.70;;;;;;;;;;5082277;28;20080;-75
2024/01/27 10:01:28;;;;;;;28.08;10.68;;;;;;;;;;5086019;28;20039;-75
2024/01/27 10:03:58;;;;;;;16.83;10.35;;;;;;;;;;5088059;28;20036;-75
2024/01/27 10:06:25;;;;;;;20.42;9.52;;;;;;;;;;5076106;28;20042;-76
2024/01/27 10:08:53;;;;;;;21.83;9.63;;;;;;;;;;5086674;28;20086;-75
2024/01/27 10:11:20;;;;;;;22.53;9.67;;;;;;;;;;5081865;28;20392;-75
2024/01/27 10:13:53;;;;;;;22.35;10.18;;;;;;;;;;5082889;28;20296;-75
2024/01/27 10:16:24;;;;;;;20.35;8.63;;;;;;;;;;5089999;28;20412;-76
2024/01/27 10:19:02;;;;;;;27.15;10.38;;;;;;;;;;5080952;28;20101;-75
2024/01/27 10:21:30;;;;;;;22.65;9.27;;;;;;;;;;5079514;28;20083;-75
2024/01/27 10:23:56;;;;;;;17.63;9.73;;;;;;;;;;5090469;27;20810;-76
2024/01/27 10:26:23;;;;;;;21.33;10.13;;;;;;;;;;5082491;28;20052;-76
2024/01/27 10:28:56;;;;;;;21.48;9.13;;;;;;;;;;5072182;28;20584;-74
2024/01/27 10:31:28;;;;;;;22.52;9.38;;;;;;;;;;5080908;28;20103;-75
2024/01/27 10:34:00;;;;;;;19.00;9.40;;;;;;;;;;5077904;28;20610;-75
2024/01/27 10:36:37;;;;;;;17.35;9.02;;;;;;;;;;5057355;28;20049;-76
2024/01/27 10:39:13;;;;;;;27.20;9.07;;;;;;;;;;5067971;28;20062;-76
2024/01/27 10:41:40;;;;;;;24.10;9.63;;;;;;;;;;5070317;28;20059;-76
2024/01/27 10:44:07;;;;;;;24.92;8.48;;;;;;;;;;5076034;28;20056;-74
2024/01/27 10:46:34;;;;;;;20.88;9.10;;;;;;;;;;5063451;28;20822;-74
2024/01/27 10:49:01;;;;;;;17.67;8.43;;;;;;;;;;5074246;28;20521;-74
2024/01/27 10:51:36;;;;;;;20.23;9.20;;;;;;;;;;5078557;28;20236;-79
2024/01/27 10:54:03;;;;;;;19.80;8.52;;;;;;;;;;5086232;28;20466;-77
2024/01/27 10:56:31;;;;;;;18.15;7.85;;;;;;;;;;5054066;28;20044;-74
2024/01/27 10:58:58;;;;;;;16.65;8.35;;;;;;;;;;5057899;28;20044;-74
2024/01/27 11:01:24;;;;;;;24.55;8.43;;;;;;;;;;5084890;28;20086;-75
2024/01/27 11:03:52;;;;;;;20.40;8.10;;;;;;;;;;5061860;28;20166;-75
2024/01/27 11:06:19;;;;;;;12.95;6.75;;;;;;;;;;5078801;28;20055;-74
2024/01/27 11:08:46;;;;;;;15.85;7.38;;;;;;;;;;5077440;28;20492;-74
2024/01/27 11:11:13;;;;;;;15.07;7.82;;;;;;;;;;5078287;28;20063;-74
2024/01/27 11:13:39;;;;;;;16.08;7.43;;;;;;;;;;5054643;28;20455;-74
2024/01/27 11:16:14;;;;;;;15.90;8.55;;;;;;;;;;5067170;28;20041;-75
2024/01/27 11:18:42;;;;;;;16.67;8.13;;;;;;;;;;5076531;28;20045;-76
2024/01/27 11:21:18;;;;;;;19.25;7.78;;;;;;;;;;5062200;28;20444;-75
2024/01/27 11:23:47;;;;;;;17.25;7.30;;;;;;;;;;5065087;28;20052;-76
2024/01/27 11:26:17;;;;;;;22.40;7.70;;;;;;;;;;5070875;28;20054;-78
2024/01/27 11:28:44;;;;;;;20.35;7.40;;;;;;;;;;5075486;28;20121;-75
2024/01/27 11:31:11;;;;;;;20.83;7.75;;;;;;;;;;5086823;28;20122;-77
2024/01/27 11:33:45;;;;;;;15.68;6.85;;;;;;;;;;5060974;28;20048;-75
2024/01/27 11:36:20;;;;;;;24.98;7.95;;;;;;;;;;5078894;28;20052;-75
2024/01/27 11:38:46;;;;;;;23.02;7.60;;;;;;;;;;5057790;28;20048;-76
2024/01/27 11:41:13;;;;;;;16.52;7.30;;;;;;;;;;5072456;28;20102;-75
2024/01/27 11:43:39;;;;;;;19.27;6.60;;;;;;;;;;5062634;28;20684;-75
2024/01/27 11:46:06;;;;;;;23.08;7.10;;;;;;;;;;5049192;28;20054;-76
2024/01/27 11:48:33;;;;;;;15.55;6.50;;;;;;;;;;5071971;28;20074;-75
2024/01/27 11:51:03;;;;;;;19.13;6.20;;;;;;;;;;5080372;28;20079;-75
2024/01/27 11:53:30;;;;;;;17.80;6.05;;;;;;;;;;5073044;28;20126;-75
2024/01/27 11:55:56;;;;;;;12.65;6.07;;;;;;;;;;5067705;28;20064;-76
2024/01/27 11:58:23;;;;;;;14.25;5.55;;;;;;;;;;5067838;28;20040;-76
2024/01/27 12:00:49;;;;;;;18.23;6.15;;;;;;;;;;5077705;28;20044;-75
2024/01/27 12:03:16;;;;;;;19.05;6.95;;;;;;;;;;5059548;28;20048;-75
2024/01/27 12:05:42;;;;;;;19.45;5.90;;;;;;;;;;5075589;28;20143;-75
2024/01/27 12:08:09;;;;;;;15.82;5.97;;;;;;;;;;5074410;28;20056;-75
2024/01/27 12:10:36;;;;;;;17.05;5.88;;;;;;;;;;5057211;28;20101;-74
2024/01/27 12:13:02;;;;;;;18.00;6.03;;;;;;;;;;5077055;28;20044;-77
2024/01/27 12:15:29;;;;;;;17.10;5.78;;;;;;;;;;5063630;28;20082;-75
2024/01/27 12:17:56;;;;;;;15.98;5.97;;;;;;;;;;5076101;28;20051;-77
2024/01/27 12:20:22;;;;;;;20.15;5.70;;;;;;;;;;5070213;28;20063;-74
2024/01/27 12:22:50;;;;;;;15.55;5.95;;;;;;;;;;5071547;28;20130;-75
2024/01/27 12:25:17;;;;;;;18.23;6.00;;;;;;;;;;5069942;28;20122;-76
2024/01/27 12:27:43;;;;;;;16.65;5.65;;;;;;;;;;5088530;28;20475;-76
2024/01/27 12:30:11;;;;;;;13.88;4.53;;;;;;;;;;5071305;28;20044;-76
2024/01/27 12:32:38;;;;;;;13.85;4.50;;;;;;;;;;5083548;28;20085;-77
2024/01/27 12:35:05;;;;;;;21.85;5.95;;;;;;;;;;5076333;28;20684;-76
2024/01/27 12:37:31;;;;;;;16.67;5.20;;;;;;;;;;5083100;28;20044;-76
2024/01/27 12:39:58;;;;;;;17.80;4.80;;;;;;;;;;5088841;28;20691;-75
2024/01/27 12:42:24;;;;;;;15.52;4.05;;;;;;;;;;5065322;28;20048;-76
2024/01/27 12:44:51;;;;;;;17.77;4.03;;;;;;;;;;5082444;28;20105;-76
2024/01/27 12:47:19;;;;;;;16.50;6.55;;;;;;;;;;5071555;28;20051;-75
2024/01/27 12:49:46;;;;;;;13.05;4.80;;;;;;;;;;5075083;28;20645;-76
2024/01/27 12:52:12;;;;;;;12.57;3.63;;;;;;;;;;5089998;28;20058;-75
2024/01/27 12:54:39;;;;;;;11.02;3.90;;;;;;;;;;5083764;28;20043;-76
2024/01/27 12:57:07;;;;;;;13.13;4.07;;;;;;;;;;5090063;28;20052;-76
2024/01/27 12:59:34;;;;;;;13.20;4.18;;;;;;;;;;5066767;28;20120;-75
2024/01/27 13:02:00;;;;;;;14.55;3.83;;;;;;;;;;5088959;28;20040;-75
2024/01/27 13:04:26;;;;;;;17.30;4.55;;;;;;;;;;5085932;28;20077;-75
2024/01/27 13:06:54;;;;;;;15.18;3.67;;;;;;;;;;5066759;28;20048;-76
2024/01/27 13:09:21;;;;;;;13.68;3.90;;;;;;;;;;5058049;28;20049;-76
2024/01/27 13:11:48;;;;;;;13.48;3.40;;;;;;;;;;5076946;28;20052;-76
2024/01/27 13:14:16;;;;;;;15.13;4.78;;;;;;;;;;5076796;28;20054;-75
2024/01/27 13:16:42;;;;;;;15.00;3.60;;;;;;;;;;5083656;28;20051;-74
2024/01/27 13:19:08;;;;;;;15.93;3.78;;;;;;;;;;5075551;28;20084;-75
2024/01/27 13:21:35;;;;;;;13.90;4.30;;;;;;;;;;5078407;28;20123;-74
2024/01/27 13:24:01;;;;;;;12.30;4.22;;;;;;;;;;5082880;28;20079;-75
2024/01/27 13:26:28;;;;;;;11.05;3.75;;;;;;;;;;5072445;28;20511;-75
2024/01/27 13:28:54;;;;;;;14.40;4.25;;;;;;;;;;5075077;28;20195;-75
2024/01/27 13:31:21;;;;;;;17.08;4.10;;;;;;;;;;5062314;28;20429;-75
2024/01/27 13:33:47;;;;;;;11.88;3.28;;;;;;;;;;5083219;28;20557;-75
2024/01/27 13:36:15;;;;;;;16.52;4.15;;;;;;;;;;5077898;28;20557;-76
2024/01/27 13:38:41;;;;;;;11.32;3.30;;;;;;;;;;5080788;28;20052;-76
2024/01/27 13:41:08;;;;;;;16.65;4.40;;;;;;;;;;5078618;28;20048;-75
2024/01/27 13:43:34;;;;;;;18.92;3.90;;;;;;;;;;5064038;28;20048;-76
2024/01/27 13:46:01;;;;;;;15.90;4.00;;;;;;;;;;5073634;28;20079;-75
2024/01/27 13:48:27;;;;;;;15.68;3.85;;;;;;;;;;5081273;28;20587;-76
2024/01/27 13:50:54;;;;;;;12.98;3.60;;;;;;;;;;5075067;28;20052;-76
2024/01/27 13:53:20;;;;;;;15.07;4.13;;;;;;;;;;5074842;28;20048;-77
2024/01/27 13:55:47;;;;;;;12.13;4.18;;;;;;;;;;5079526;28;20050;-74
2024/01/27 13:58:14;;;;;;;15.80;4.40;;;;;;;;;;5072486;28;20063;-76
2024/01/27 14:00:40;;;;;;;13.10;3.78;;;;;;;;;;5057527;28;20053;-75
2024/01/27 14:03:07;;;;;;;17.90;4.50;;;;;;;;;;5059734;28;20075;-74
2024/01/27 14:05:34;;;;;;;18.52;4.25;;;;;;;;;;5071844;28;20053;-76
2024/01/27 14:08:00;;;;;;;13.20;3.88;;;;;;;;;;5075660;28;20098;-75
2024/01/27 14:10:27;;;;;;;16.60;4.93;;;;;;;;;;5057624;28;21120;-77
2024/01/27 14:12:53;;;;;;;14.95;3.70;;;;;;;;;;5082208;28;20748;-77
2024/01/27 14:15:20;;;;;;;13.63;4.25;;;;;;;;;;5074704;28;20116;-76
2024/01/27 14:17:47;;;;;;;16.50;4.05;;;;;;;;;;5065752;28;20063;-76
2024/01/27 14:20:14;;;;;;;14.55;3.97;;;;;;;;;;5061270;28;20090;-76
2024/01/27 14:22:41;;;;;;;12.98;3.88;;;;;;;;;;5052768;28;20055;-76
2024/01/27 14:25:08;;;;;;;11.25;3.60;;;;;;;;;;5057472;28;20495;-76
2024/01/27 14:27:35;;;;;;;14.48;4.20;;;;;;;;;;5079195;28;20048;-77